Time;durP1;ratioP1;P1;durP2;ratioP2;P2;SDS_P1;SDS_P2;PMS_P1;PMS_P2;Temp;Humidity;BMP_temperature;BMP_pressure;BME280_temperature;BME280_humidity;BME280_pressure;Samples;Min_cycle;Max_cycle;Signal;HPM_P1;HPM_P2
2022/09/17 00:01:48;;;;;;;4.37;3.98;;;;;;;8.73;100.00;97701.86;2141159;83;21055;-84
2022/09/17 00:04:49;;;;;;;3.87;3.58;;;;;;;8.70;100.00;97704.05;2141278;83;21302;-83
2022/09/17 00:07:49;;;;;;;3.92;3.15;;;;;;;8.69;100.00;97705.86;2156978;82;21027;-83
2022/09/17 00:10:50;;;;;;;4.33;3.10;;;;;;;8.67;100.00;97700.00;2179132;82;20936;-84
2022/09/17 00:13:51;;;;;;;7.00;3.55;;;;;;;8.66;100.00;97702.81;2179058;82;20936;-84
2022/09/17 00:16:51;;;;;;;3.80;3.50;;;;;;;8.64;100.00;97696.98;2179160;81;21018;-84
2022/09/17 00:19:52;;;;;;;5.28;3.30;;;;;;;8.65;100.00;97703.81;2178884;81;20953;-84
2022/09/17 00:22:53;;;;;;;4.78;3.80;;;;;;;8.65;100.00;97705.11;2179184;82;20952;-84
2022/09/17 00:25:54;;;;;;;4.60;4.15;;;;;;;8.62;100.00;97706.31;2179051;82;20983;-84
2022/09/17 00:28:54;;;;;;;3.60;3.30;;;;;;;8.61;100.00;97713.03;2179162;81;20940;-84
2022/09/17 00:31:55;;;;;;;3.75;3.45;;;;;;;8.59;100.00;97715.80;2179022;82;20975;-84
2022/09/17 00:34:56;;;;;;;4.05;3.75;;;;;;;8.54;100.00;97711.17;2179216;82;20971;-84
2022/09/17 00:37:57;;;;;;;3.87;3.50;;;;;;;8.50;100.00;97707.81;2179028;82;20932;-83
2022/09/17 00:40:57;;;;;;;3.50;3.22;;;;;;;8.47;100.00;97705.59;2179052;81;20971;-83
2022/09/17 00:43:59;;;;;;;3.10;2.90;;;;;;;8.45;100.00;97707.09;2178947;82;20936;-84
2022/09/17 00:47:00;;;;;;;3.95;3.62;;;;;;;8.39;100.00;97703.12;2179048;81;21039;-84
2022/09/17 00:50:00;;;;;;;3.60;3.30;;;;;;;8.36;100.00;97704.33;2178979;81;21435;-84
2022/09/17 00:53:01;;;;;;;3.92;3.55;;;;;;;8.35;100.00;97702.72;2179066;81;20956;-84
2022/09/17 00:56:02;;;;;;;4.12;3.20;;;;;;;8.33;100.00;97709.90;2178988;82;20991;-83
2022/09/17 00:59:03;;;;;;;3.87;3.58;;;;;;;8.33;100.00;97707.29;2179189;81;20999;-83
2022/09/17 01:02:04;;;;;;;4.62;3.45;;;;;;;8.27;100.00;97706.73;2179118;82;21481;-84
2022/09/17 01:05:04;;;;;;;4.05;3.75;;;;;;;8.25;100.00;97703.52;2179358;81;21426;-84
2022/09/17 01:08:05;;;;;;;3.50;3.20;;;;;;;8.24;100.00;97703.20;2179089;82;21050;-84
2022/09/17 01:11:06;;;;;;;3.98;3.02;;;;;;;8.25;100.00;97699.60;2179362;82;21462;-84
2022/09/17 01:14:07;;;;;;;6.30;3.20;;;;;;;8.26;100.00;97694.19;2179247;82;20939;-84
2022/09/17 01:17:07;;;;;;;3.95;3.02;;;;;;;8.27;100.00;97695.00;2179502;82;20978;-84
2022/09/17 01:20:08;;;;;;;2.98;2.72;;;;;;;8.28;100.00;97694.00;2182112;82;21067;-84
2022/09/17 01:23:09;;;;;;;2.65;2.45;;;;;;;8.30;100.00;97695.11;2179532;82;20983;-83
2022/09/17 01:26:10;;;;;;;3.75;3.45;;;;;;;8.25;100.00;97691.78;2179064;81;20971;-82
2022/09/17 01:29:10;;;;;;;2.98;2.77;;;;;;;8.26;100.00;97697.30;2179305;81;20968;-83
2022/09/17 01:32:11;;;;;;;3.15;2.55;;;;;;;8.26;100.00;97684.26;2179307;82;20979;-83
2022/09/17 01:35:12;;;;;;;3.27;3.00;;;;;;;8.29;100.00;97686.48;2182092;82;21537;-84
2022/09/17 01:38:13;;;;;;;7.97;2.95;;;;;;;8.30;100.00;97688.59;2179507;82;21435;-83
2022/09/17 01:41:13;;;;;;;2.33;2.22;;;;;;;8.25;100.00;97686.06;2179420;82;21568;-83
2022/09/17 01:44:14;;;;;;;5.37;2.83;;;;;;;8.25;100.00;97678.23;2179287;82;21490;-83
2022/09/17 01:47:15;;;;;;;3.55;2.75;;;;;;;8.25;100.00;97671.72;2180128;81;20994;-83
2022/09/17 01:50:16;;;;;;;2.60;2.40;;;;;;;8.23;100.00;97684.65;2179230;82;21038;-83
2022/09/17 01:53:16;;;;;;;2.45;2.35;;;;;;;8.22;100.00;97676.48;2179103;82;20948;-83
2022/09/17 01:56:17;;;;;;;2.62;2.42;;;;;;;8.20;100.00;97680.59;2179771;82;20991;-82
2022/09/17 01:59:18;;;;;;;2.52;2.40;;;;;;;8.21;100.00;97675.69;2179121;82;21002;-84
2022/09/17 02:02:19;;;;;;;2.27;2.17;;;;;;;8.23;100.00;97672.91;2179127;82;20963;-84
2022/09/17 02:05:19;;;;;;;2.60;2.40;;;;;;;8.22;100.00;97672.08;2179085;82;21035;-84
2022/09/17 02:08:20;;;;;;;3.35;2.42;;;;;;;8.21;100.00;97667.86;2168514;82;21000;-83
2022/09/17 02:11:21;;;;;;;2.10;2.00;;;;;;;8.20;100.00;97674.58;2154263;83;21003;-83
2022/09/17 02:14:22;;;;;;;2.90;2.60;;;;;;;8.20;100.00;97676.69;2154310;83;21023;-84
2022/09/17 02:17:23;;;;;;;3.58;2.60;;;;;;;8.20;100.00;97672.77;2154276;83;21502;-83
2022/09/17 02:20:23;;;;;;;2.80;2.50;;;;;;;8.22;100.00;97681.70;2154453;83;20988;-83
2022/09/17 02:23:24;;;;;;;2.77;2.37;;;;;;;8.21;100.00;97671.77;2154210;83;20961;-83
2022/09/17 02:26:25;;;;;;;3.65;2.35;;;;;;;8.22;100.00;97673.88;2154154;83;21019;-83
2022/09/17 02:29:25;;;;;;;2.35;2.25;;;;;;;8.22;100.00;97666.06;2154455;83;21007;-84
2022/09/17 02:32:26;;;;;;;2.52;2.30;;;;;;;8.21;100.00;97673.58;2154066;83;21036;-83
2022/09/17 02:35:27;;;;;;;4.03;2.77;;;;;;;8.17;100.00;97662.73;2154331;83;20987;-83
2022/09/17 02:38:28;;;;;;;3.83;2.40;;;;;;;8.17;100.00;97660.63;2154128;83;21051;-83
2022/09/17 02:41:29;;;;;;;3.60;2.60;;;;;;;8.17;100.00;97666.64;2153916;83;21035;-83
2022/09/17 02:44:30;;;;;;;2.27;2.17;;;;;;;8.14;100.00;97671.44;2154355;83;20972;-83
2022/09/17 02:47:31;;;;;;;2.58;2.37;;;;;;;8.15;100.00;97675.66;2154407;83;21004;-83
2022/09/17 02:50:31;;;;;;;2.42;2.22;;;;;;;8.11;100.00;97674.41;2154262;83;21072;-83
2022/09/17 02:53:32;;;;;;;3.92;2.42;;;;;;;8.09;100.00;97671.19;2154194;83;20964;-83
2022/09/17 02:56:33;;;;;;;3.33;2.42;;;;;;;8.06;100.00;97671.58;2154259;83;21019;-83
2022/09/17 02:59:34;;;;;;;3.30;3.10;;;;;;;8.06;100.00;97670.27;2154088;83;21585;-83
2022/09/17 03:02:35;;;;;;;2.80;2.55;;;;;;;8.03;100.00;97670.13;2154192;83;21008;-83
2022/09/17 03:05:35;;;;;;;4.08;2.58;;;;;;;7.99;100.00;97669.71;2154185;83;21054;-83
2022/09/17 03:08:38;;;;;;;3.50;2.60;;;;;;;7.97;100.00;97674.81;2164590;82;20952;-83
2022/09/17 03:11:39;;;;;;;2.87;2.67;;;;;;;7.98;100.00;97680.33;2179277;81;21487;-83
2022/09/17 03:14:40;;;;;;;4.55;2.75;;;;;;;7.94;100.00;97677.27;2179156;81;21027;-84
2022/09/17 03:17:40;;;;;;;3.47;3.17;;;;;;;7.93;100.00;97674.86;2179234;82;20959;-83
2022/09/17 03:20:41;;;;;;;4.50;3.37;;;;;;;7.92;100.00;97680.57;2179102;82;20995;-82
2022/09/17 03:23:42;;;;;;;3.67;3.22;;;;;;;7.89;100.00;97681.45;2180413;82;21010;-81
2022/09/17 03:26:43;;;;;;;3.70;3.40;;;;;;;7.90;100.00;97681.77;2179464;82;21505;-83
2022/09/17 03:29:43;;;;;;;3.72;3.42;;;;;;;7.88;100.00;97678.05;2179227;82;21079;-83
2022/09/17 03:32:44;;;;;;;4.22;3.72;;;;;;;7.87;100.00;97679.54;2179368;81;20987;-83
2022/09/17 03:35:45;;;;;;;4.92;4.42;;;;;;;7.85;100.00;97681.50;2179165;81;20986;-83
2022/09/17 03:38:46;;;;;;;4.17;3.87;;;;;;;7.81;100.00;97675.87;2180910;82;20975;-82
2022/09/17 03:41:46;;;;;;;4.53;4.05;;;;;;;7.80;100.00;97679.47;2179147;82;20960;-84
2022/09/17 03:44:47;;;;;;;5.10;3.98;;;;;;;7.79;100.00;97682.27;2179136;82;20983;-82
2022/09/17 03:47:48;;;;;;;8.90;4.15;;;;;;;7.78;100.00;97684.56;2179258;82;21541;-83
2022/09/17 03:50:49;;;;;;;8.13;4.33;;;;;;;7.78;100.00;97679.36;2179276;82;21462;-84
2022/09/17 03:53:50;;;;;;;6.12;4.60;;;;;;;7.79;100.00;97684.87;2179461;82;20983;-84
2022/09/17 03:56:50;;;;;;;4.85;4.45;;;;;;;7.78;100.00;97668.44;2179241;82;20971;-83
2022/09/17 03:59:51;;;;;;;5.42;4.85;;;;;;;7.77;100.00;97669.40;2179010;82;21281;-83
2022/09/17 04:02:52;;;;;;;7.47;5.50;;;;;;;7.75;100.00;97670.09;2156875;82;21042;-83
2022/09/17 04:05:52;;;;;;;5.35;4.85;;;;;;;7.75;100.00;97672.70;2179074;82;20948;-84
2022/09/17 04:08:53;;;;;;;6.50;4.87;;;;;;;7.76;100.00;97668.29;2168198;82;21578;-83
2022/09/17 04:11:54;;;;;;;4.50;4.10;;;;;;;7.75;100.00;97658.36;2153952;83;21507;-84
2022/09/17 04:14:55;;;;;;;6.42;5.65;;;;;;;7.75;100.00;97664.07;2154070;83;21463;-84
2022/09/17 04:18:00;;;;;;;7.00;4.85;;;;;;;7.75;100.00;97663.58;2154201;83;21529;-84
2022/09/17 04:20:58;;;;;;;5.75;5.25;;;;;;;7.74;100.00;97650.73;2153904;83;21015;-82
2022/09/17 04:23:59;;;;;;;6.58;5.50;;;;;;;7.74;100.00;97653.34;2153936;82;21035;-84
2022/09/17 04:27:00;;;;;;;7.20;5.40;;;;;;;7.73;100.00;97651.73;2153732;83;21039;-85
2022/09/17 04:30:00;;;;;;;7.83;5.50;;;;;;;7.74;100.00;97648.13;2154011;83;20960;-84
2022/09/17 04:33:01;;;;;;;7.22;5.47;;;;;;;7.73;100.00;97647.83;2154224;83;21035;-84
2022/09/17 04:36:02;;;;;;;5.45;4.95;;;;;;;7.75;100.00;97653.16;2154141;83;21007;-84
2022/09/17 04:39:02;;;;;;;8.33;5.78;;;;;;;7.79;100.00;97647.09;2154176;83;20991;-84
2022/09/17 04:42:03;;;;;;;7.30;6.55;;;;;;;7.81;100.00;97645.09;2154116;83;20987;-84
2022/09/17 04:45:04;;;;;;;6.97;5.70;;;;;;;7.85;100.00;97640.61;2154141;83;21003;-84
2022/09/17 04:48:05;;;;;;;6.60;6.00;;;;;;;7.96;100.00;97642.73;2154371;82;21482;-84
2022/09/17 04:51:05;;;;;;;9.03;6.62;;;;;;;8.16;100.00;97641.56;2154272;83;21042;-84
2022/09/17 04:54:06;;;;;;;10.35;6.50;;;;;;;8.41;100.00;97643.74;2154253;82;20984;-82
2022/09/17 04:57:07;;;;;;;8.58;6.60;;;;;;;8.62;100.00;97637.16;2154304;83;21000;-84
2022/09/17 05:00:09;;;;;;;6.95;6.28;;;;;;;8.79;100.00;97638.45;2154284;83;21062;-84
2022/09/17 05:03:09;;;;;;;6.80;5.87;;;;;;;9.01;100.00;97640.94;2154239;83;21027;-84
2022/09/17 05:06:10;;;;;;;6.95;6.28;;;;;;;9.17;100.00;97636.69;2154124;83;21033;-84
2022/09/17 05:09:11;;;;;;;13.70;7.25;;;;;;;9.30;100.00;97634.09;2164958;81;21048;-83
2022/09/17 05:12:12;;;;;;;14.35;9.30;;;;;;;9.41;100.00;97632.71;2179112;82;21019;-84
2022/09/17 05:15:13;;;;;;;10.32;7.72;;;;;;;9.54;100.00;97620.98;2179427;82;20943;-85
2022/09/17 05:18:13;;;;;;;8.90;6.67;;;;;;;9.63;100.00;97618.48;2179130;82;20960;-82
2022/09/17 05:21:14;;;;;;;8.08;6.65;;;;;;;9.73;100.00;97624.63;2179123;82;20940;-84
2022/09/17 05:24:15;;;;;;;6.83;5.83;;;;;;;9.79;100.00;97620.42;2179129;81;21002;-83
2022/09/17 05:27:16;;;;;;;8.70;6.50;;;;;;;9.78;100.00;97623.50;2180723;82;20959;-86
2022/09/17 05:30:16;;;;;;;7.35;6.03;;;;;;;9.78;100.00;97633.96;2179945;82;20905;-85
2022/09/17 05:33:18;;;;;;;9.23;6.60;;;;;;;9.83;100.00;97630.26;2179142;82;21483;-84
2022/09/17 05:36:19;;;;;;;7.00;6.28;;;;;;;9.96;100.00;97626.83;2179331;82;21546;-88
2022/09/17 05:39:24;;;;;;;9.68;7.05;;;;;;;9.96;100.00;97626.83;2179452;81;20986;-87
2022/09/17 05:42:22;;;;;;;7.15;6.28;;;;;;;10.39;100.00;97624.61;2181141;82;20994;-87
2022/09/17 05:45:23;;;;;;;7.97;7.17;;;;;;;10.39;100.00;97624.61;2179647;82;20979;-86
2022/09/17 05:48:23;;;;;;;7.75;6.97;;;;;;;10.51;100.00;97638.69;2179257;81;21014;-85
2022/09/17 05:51:24;;;;;;;8.63;6.17;;;;;;;10.61;100.00;97646.63;2179085;82;20995;-88
2022/09/17 05:54:25;;;;;;;8.38;6.55;;;;;;;10.71;100.00;97641.77;2179243;82;20983;-89
2022/09/17 05:57:25;;;;;;;8.68;7.62;;;;;;;10.87;100.00;97653.57;2179331;82;20963;-84
2022/09/17 06:00:26;;;;;;;11.00;9.20;;;;;;;11.03;100.00;97653.11;2179205;82;21003;-87
2022/09/17 06:03:27;;;;;;;11.08;8.40;;;;;;;11.17;100.00;97646.02;2179236;82;20968;-87
2022/09/17 06:06:29;;;;;;;9.65;7.30;;;;;;;11.28;100.00;97654.52;2181645;82;21427;-90
2022/09/17 06:09:30;;;;;;;8.03;7.20;;;;;;;11.46;100.00;97653.83;2180580;81;21067;-89
2022/09/17 06:12:31;;;;;;;8.13;5.95;;;;;;;11.69;100.00;97652.24;2179162;82;20921;-88
2022/09/17 06:15:31;;;;;;;7.15;5.85;;;;;;;11.89;100.00;97653.47;2179660;81;21469;-89
2022/09/17 06:18:32;;;;;;;7.90;6.20;;;;;;;12.00;100.00;97652.48;2179743;82;20917;-92
2022/09/17 06:21:33;;;;;;;6.85;5.58;;;;;;;12.16;100.00;97654.55;2179468;82;20956;-89
2022/09/17 06:24:34;;;;;;;7.22;6.30;;;;;;;12.33;100.00;97655.61;2181512;82;20984;-86
2022/09/17 06:27:35;;;;;;;7.70;6.55;;;;;;;12.50;100.00;97647.47;2160551;82;21617;-84
2022/09/17 06:30:36;;;;;;;6.25;5.65;;;;;;;12.66;100.00;97651.36;2183314;80;21045;-85
2022/09/17 06:33:37;;;;;;;6.37;5.47;;;;;;;12.76;100.00;97652.96;2180480;81;20912;-88
2022/09/17 06:36:37;;;;;;;6.75;6.12;;;;;;;12.88;100.00;97654.84;2179279;82;20986;-91
2022/09/17 06:39:39;;;;;;;8.58;5.42;;;;;;;12.98;100.00;97651.19;2179220;82;21021;-88
2022/09/17 06:42:40;;;;;;;6.47;5.33;;;;;;;13.01;100.00;97648.95;2179440;81;21008;-85
2022/09/17 06:45:41;;;;;;;5.80;5.20;;;;;;;13.03;100.00;97652.66;2179033;82;21066;-88
2022/09/17 06:48:42;;;;;;;6.10;5.20;;;;;;;13.03;100.00;97629.81;2179221;82;21060;-85
2022/09/17 06:51:42;;;;;;;5.55;5.15;;;;;;;13.06;100.00;97619.36;2179591;81;21447;-86
2022/09/17 06:54:43;;;;;;;6.30;5.30;;;;;;;13.02;100.00;97613.76;2180050;81;20920;-88
2022/09/17 06:57:44;;;;;;;5.65;4.87;;;;;;;13.02;100.00;97621.64;2180652;81;20979;-91
2022/09/17 07:00:45;;;;;;;5.42;5.03;;;;;;;12.90;100.00;97644.95;2180619;82;21506;-91
2022/09/17 07:03:48;;;;;;;5.72;4.85;;;;;;;12.79;100.00;97652.52;2180159;81;21517;-91
2022/09/17 07:06:48;;;;;;;5.65;5.00;;;;;;;12.75;100.00;97651.36;2179711;81;21034;-89
2022/09/17 07:09:49;;;;;;;5.00;4.60;;;;;;;12.73;100.00;97646.84;2179491;82;21487;-89
2022/09/17 07:12:50;;;;;;;5.65;4.53;;;;;;;12.74;100.00;97637.94;2179741;81;21012;-89
2022/09/17 07:15:50;;;;;;;5.37;4.83;;;;;;;12.83;100.00;97648.95;2179340;81;20948;-86
2022/09/17 07:18:51;;;;;;;4.75;4.28;;;;;;;12.94;100.00;97661.86;2152585;82;20991;-89
2022/09/17 07:21:52;;;;;;;5.53;4.15;;;;;;;13.10;100.00;97665.22;2179083;82;21007;-87
2022/09/17 07:24:53;;;;;;;4.83;3.85;;;;;;;13.23;100.00;97672.95;2179864;82;20963;-88
2022/09/17 07:27:53;;;;;;;5.55;4.40;;;;;;;13.36;100.00;97664.92;2179500;82;20994;-87
2022/09/17 07:30:54;;;;;;;3.58;3.27;;;;;;;13.60;100.00;97657.09;2179994;81;20995;-86
2022/09/17 07:33:55;;;;;;;6.28;4.55;;;;;;;13.78;100.00;97664.92;2180208;82;20952;-87
2022/09/17 07:36:55;;;;;;;5.97;4.33;;;;;;;13.91;100.00;97654.22;2179451;82;21034;-86
2022/09/17 07:39:56;;;;;;;4.45;4.05;;;;;;;14.14;100.00;97659.22;2179299;82;20984;-90
2022/09/17 07:42:57;;;;;;;6.37;3.67;;;;;;;14.24;100.00;97651.55;2179247;81;21597;-91
2022/09/17 07:45:58;;;;;;;4.53;3.70;;;;;;;14.35;100.00;97658.64;2181051;81;20971;-87
2022/09/17 07:48:59;;;;;;;3.77;3.22;;;;;;;14.42;100.00;97648.00;2180854;82;21495;-88
2022/09/17 07:52:04;;;;;;;4.85;3.70;;;;;;;14.44;100.00;97645.94;2158766;82;21026;-90
2022/09/17 07:55:02;;;;;;;3.62;3.33;;;;;;;14.46;100.00;97657.89;2178712;81;21035;-87
2022/09/17 07:58:03;;;;;;;4.30;3.42;;;;;;;14.42;100.00;97675.66;2179344;82;20956;-85
2022/09/17 08:01:03;;;;;;;4.53;4.20;;;;;;;14.54;100.00;97673.88;2179599;82;20970;-91
2022/09/17 08:04:04;;;;;;;3.37;3.10;;;;;;;14.61;100.00;97678.48;2179106;81;20976;-90
2022/09/17 08:07:05;;;;;;;3.83;3.52;;;;;;;14.65;100.00;97680.96;2179140;82;20987;-87
2022/09/17 08:10:06;;;;;;;4.17;3.70;;;;;;;14.77;100.00;97671.20;2179068;82;21098;-88
2022/09/17 08:13:07;;;;;;;4.08;3.62;;;;;;;14.75;100.00;97679.86;2157949;82;20996;-87
2022/09/17 08:16:08;;;;;;;3.17;2.87;;;;;;;14.78;100.00;97684.66;2178663;82;21045;-88
2022/09/17 08:19:09;;;;;;;5.42;4.35;;;;;;;14.83;100.00;97679.23;2179235;82;21022;-86
2022/09/17 08:22:10;;;;;;;4.90;3.55;;;;;;;14.85;100.00;97675.32;2178813;82;21116;-88
2022/09/17 08:25:11;;;;;;;4.10;3.27;;;;;;;14.91;100.00;97682.30;2178737;81;20979;-88
2022/09/17 08:28:12;;;;;;;4.42;3.30;;;;;;;14.97;100.00;97676.61;2178680;82;21094;-89
2022/09/17 08:31:13;;;;;;;5.03;2.60;;;;;;;15.07;100.00;97678.13;2179199;81;21447;-87
2022/09/17 08:34:13;;;;;;;4.47;2.77;;;;;;;15.14;100.00;97674.05;2178749;81;21051;-86
2022/09/17 08:37:15;;;;;;;6.75;3.10;;;;;;;15.12;100.00;97671.66;2178843;81;20959;-87
2022/09/17 08:40:15;;;;;;;5.50;3.10;;;;;;;15.19;100.00;97670.20;2179020;82;21022;-85
2022/09/17 08:43:16;;;;;;;5.58;2.90;;;;;;;15.27;100.00;97666.69;2179147;82;21031;-86
2022/09/17 08:46:17;;;;;;;4.37;3.02;;;;;;;15.46;100.00;97654.63;2179293;82;20984;-84
2022/09/17 08:49:20;;;;;;;4.10;3.10;;;;;;;15.74;100.00;97655.95;2179082;82;20983;-84
2022/09/17 08:52:20;;;;;;;3.35;2.98;;;;;;;16.00;100.00;97654.55;2179097;82;21090;-87
2022/09/17 08:55:21;;;;;;;3.17;2.87;;;;;;;16.25;100.00;97660.72;2179429;82;20948;-87
2022/09/17 08:58:21;;;;;;;2.02;1.92;;;;;;;16.40;100.00;97662.28;2179401;82;20983;-88
2022/09/17 09:01:22;;;;;;;4.22;1.98;;;;;;;16.52;100.00;97664.02;2179675;81;21018;-86
2022/09/17 09:04:23;;;;;;;5.53;3.10;;;;;;;16.49;100.00;97668.75;2179746;81;20948;-86
2022/09/17 09:07:25;;;;;;;4.08;3.12;;;;;;;16.41;100.00;97672.33;2180386;81;21426;-87
2022/09/17 09:10:25;;;;;;;2.72;2.52;;;;;;;16.41;100.00;97680.25;2179378;82;21547;-86
2022/09/17 09:13:27;;;;;;;2.90;2.52;;;;;;;16.48;100.00;97672.96;2178808;81;20991;-87
2022/09/17 09:16:28;;;;;;;2.35;2.15;;;;;;;16.55;100.00;97674.09;2179539;81;21059;-85
2022/09/17 09:19:29;;;;;;;2.83;2.17;;;;;;;16.59;100.00;97672.58;2179795;81;20956;-84
2022/09/17 09:22:29;;;;;;;2.60;2.25;;;;;;;16.52;100.00;97655.57;2179127;81;21054;-85
2022/09/17 09:25:30;;;;;;;3.27;2.20;;;;;;;16.55;100.00;97640.57;2179149;82;21464;-85
2022/09/17 09:28:31;;;;;;;2.15;1.77;;;;;;;16.57;100.00;97634.52;2178738;82;21444;-85
2022/09/17 09:31:32;;;;;;;1.77;1.50;;;;;;;16.58;100.00;97641.39;2179224;81;21015;-84
2022/09/17 09:34:33;;;;;;;1.80;1.70;;;;;;;16.65;100.00;97649.16;2179518;82;21011;-85
2022/09/17 09:37:34;;;;;;;2.77;1.60;;;;;;;16.63;100.00;97667.88;2181031;81;20920;-86
2022/09/17 09:40:35;;;;;;;1.22;1.22;;;;;;;16.56;100.00;97645.33;2179307;81;20944;-85
2022/09/17 09:43:36;;;;;;;1.32;1.32;;;;;;;16.53;100.00;97657.69;2157842;82;20994;-86
2022/09/17 09:46:37;;;;;;;1.85;1.62;;;;;;;16.45;100.00;97658.89;2179399;82;21003;-85
2022/09/17 09:49:37;;;;;;;2.08;1.60;;;;;;;16.52;100.00;97652.13;2179680;81;21007;-85
2022/09/17 09:52:38;;;;;;;2.08;1.30;;;;;;;16.62;100.00;97659.67;2181318;82;20920;-85
2022/09/17 09:55:39;;;;;;;2.52;1.90;;;;;;;16.65;100.00;97668.45;2179172;81;21059;-85
2022/09/17 09:58:40;;;;;;;2.80;1.72;;;;;;;16.56;100.00;97672.55;2178979;82;21505;-85
2022/09/17 10:01:41;;;;;;;2.15;1.45;;;;;;;16.28;100.00;97668.70;2179065;82;21011;-85
2022/09/17 10:04:42;;;;;;;2.12;1.98;;;;;;;16.07;100.00;97674.17;2179059;82;21486;-85
2022/09/17 10:07:43;;;;;;;3.35;2.02;;;;;;;15.88;100.00;97681.52;2178811;82;20963;-85
2022/09/17 10:10:44;;;;;;;3.05;2.30;;;;;;;15.75;100.00;97681.83;2165485;82;21042;-85
2022/09/17 10:13:45;;;;;;;4.30;2.52;;;;;;;15.59;100.00;97684.67;2154207;83;21048;-85
2022/09/17 10:16:46;;;;;;;1.80;1.67;;;;;;;15.57;100.00;97677.52;2154205;83;21511;-87
2022/09/17 10:19:47;;;;;;;3.08;1.62;;;;;;;15.70;100.00;97673.80;2154315;83;20980;-91
2022/09/17 10:22:47;;;;;;;2.08;1.60;;;;;;;16.00;100.00;97681.44;2154404;83;21030;-91
2022/09/17 10:25:49;;;;;;;1.12;1.12;;;;;;;16.23;100.00;97683.94;2154166;83;21502;-87
2022/09/17 10:28:49;;;;;;;2.10;1.47;;;;;;;16.36;100.00;97678.84;2154193;82;21083;-88
2022/09/17 10:31:50;;;;;;;2.15;1.60;;;;;;;16.41;100.00;97685.53;2154028;83;21517;-86
2022/09/17 10:34:51;;;;;;;3.67;2.20;;;;;;;16.50;100.00;97678.27;2154314;83;21491;-87
2022/09/17 10:37:51;;;;;;;3.72;2.10;;;;;;;16.50;100.00;97681.44;2154665;83;21030;-87
2022/09/17 10:40:52;;;;;;;2.17;1.98;;;;;;;16.42;100.00;97682.64;2154009;83;20948;-88
2022/09/17 10:43:53;;;;;;;2.45;2.10;;;;;;;16.32;100.00;97684.34;2154263;83;21594;-86
2022/09/17 10:46:54;;;;;;;2.08;1.92;;;;;;;16.11;100.00;97684.02;2154158;83;21043;-89
2022/09/17 10:49:55;;;;;;;2.12;1.92;;;;;;;15.90;100.00;97687.34;2154184;83;21527;-87
2022/09/17 10:52:56;;;;;;;3.20;2.65;;;;;;;15.76;100.00;97686.06;2154160;83;21039;-88
2022/09/17 10:55:57;;;;;;;2.58;2.37;;;;;;;15.68;100.00;97690.40;2154355;82;20976;-87
2022/09/17 10:58:57;;;;;;;2.45;2.25;;;;;;;15.71;100.00;97688.59;2154631;83;21513;-88
2022/09/17 11:01:58;;;;;;;4.15;2.67;;;;;;;15.91;100.00;97698.22;2154500;83;21004;-89
2022/09/17 11:04:59;;;;;;;2.80;1.90;;;;;;;15.96;100.00;97692.20;2154760;83;21016;-85
2022/09/17 11:08:00;;;;;;;3.35;2.37;;;;;;;16.00;100.00;97681.44;2155036;83;21568;-84
2022/09/17 11:11:00;;;;;;;2.20;2.10;;;;;;;15.88;100.00;97686.27;2168986;81;21002;-84
2022/09/17 11:14:02;;;;;;;2.60;2.40;;;;;;;15.79;100.00;97689.02;2160221;82;20988;-85
2022/09/17 11:17:02;;;;;;;3.72;2.20;;;;;;;15.60;100.00;97684.95;2181955;82;20931;-84
2022/09/17 11:20:03;;;;;;;2.30;2.08;;;;;;;15.40;100.00;97688.53;2179392;81;21245;-87
2022/09/17 11:23:04;;;;;;;2.20;2.10;;;;;;;15.18;100.00;97699.73;2179148;82;21561;-88
2022/09/17 11:26:05;;;;;;;2.30;2.20;;;;;;;14.97;100.00;97712.98;2179407;82;21023;-85
2022/09/17 11:29:05;;;;;;;3.83;2.60;;;;;;;14.81;100.00;97715.01;2179471;82;21023;-88
2022/09/17 11:32:06;;;;;;;2.37;2.20;;;;;;;14.64;100.00;97715.44;2158322;82;20944;-87
2022/09/17 11:35:07;;;;;;;2.55;2.00;;;;;;;14.61;100.00;97705.34;2179412;81;22090;-86
2022/09/17 11:38:08;;;;;;;2.37;2.08;;;;;;;14.65;100.00;97705.98;2180334;82;20980;-90
2022/09/17 11:41:09;;;;;;;2.65;2.55;;;;;;;14.77;100.00;97714.67;2181905;82;20978;-83
2022/09/17 11:44:10;;;;;;;2.77;2.67;;;;;;;14.90;100.00;97712.82;2181125;81;21034;-87
2022/09/17 11:47:10;;;;;;;3.12;2.30;;;;;;;14.91;100.00;97709.98;2179237;81;20972;-87
2022/09/17 11:50:11;;;;;;;4.25;2.77;;;;;;;15.02;100.00;97703.88;2179295;82;20951;-88
2022/09/17 11:53:12;;;;;;;3.95;2.83;;;;;;;15.13;100.00;97698.81;2180535;81;20975;-89
2022/09/17 11:56:12;;;;;;;2.80;2.37;;;;;;;15.19;100.00;97703.17;2182085;81;20952;-84
2022/09/17 11:59:13;;;;;;;2.33;2.08;;;;;;;15.26;100.00;97711.20;2180802;82;20963;-87
2022/09/17 12:02:14;;;;;;;3.70;2.95;;;;;;;15.22;100.00;97716.67;2179266;81;21010;-86
2022/09/17 12:05:15;;;;;;;2.77;2.58;;;;;;;15.33;100.00;97707.13;2179898;82;20905;-84
2022/09/17 12:08:15;;;;;;;3.50;3.30;;;;;;;15.41;100.00;97702.80;2180695;82;20931;-84
2022/09/17 12:11:16;;;;;;;2.40;2.30;;;;;;;15.34;100.00;97706.09;2180709;82;21042;-85
2022/09/17 12:14:17;;;;;;;3.65;2.30;;;;;;;15.25;100.00;97703.02;2180267;82;21475;-88
2022/09/17 12:17:18;;;;;;;2.40;2.30;;;;;;;15.10;100.00;97711.95;2179321;82;21508;-86
2022/09/17 12:20:18;;;;;;;1.72;1.62;;;;;;;14.89;100.00;97725.72;2179343;81;21058;-88
2022/09/17 12:23:19;;;;;;;2.27;2.17;;;;;;;14.62;100.00;97719.59;2179220;81;21026;-88
2022/09/17 12:26:20;;;;;;;2.50;2.30;;;;;;;14.49;100.00;97717.20;2179276;82;21458;-88
2022/09/17 12:29:21;;;;;;;3.77;3.40;;;;;;;14.43;100.00;97712.29;2179461;81;20947;-87
2022/09/17 12:32:21;;;;;;;4.28;3.27;;;;;;;14.42;100.00;97709.38;2179264;82;20974;-88
2022/09/17 12:35:22;;;;;;;4.58;3.70;;;;;;;14.49;100.00;97704.03;2179123;82;20952;-87
2022/09/17 12:38:23;;;;;;;3.37;3.08;;;;;;;14.64;100.00;97697.80;2179307;82;20940;-88
2022/09/17 12:41:23;;;;;;;4.08;3.70;;;;;;;14.83;100.00;97702.42;2179089;82;21021;-86
2022/09/17 12:44:24;;;;;;;3.33;3.02;;;;;;;15.01;100.00;97698.84;2179059;82;21506;-87
2022/09/17 12:47:25;;;;;;;2.87;2.65;;;;;;;15.23;100.00;97696.38;2179217;82;20956;-86
2022/09/17 12:50:26;;;;;;;2.70;2.58;;;;;;;15.44;100.00;97695.73;2179460;81;21482;-87
2022/09/17 12:53:27;;;;;;;2.92;2.72;;;;;;;15.43;100.00;97690.69;2179612;82;20971;-86
2022/09/17 12:56:27;;;;;;;3.30;3.08;;;;;;;15.30;100.00;97687.30;2179900;82;21014;-88
2022/09/17 12:59:28;;;;;;;6.25;3.40;;;;;;;15.24;100.00;97692.70;2179747;82;20977;-87
2022/09/17 13:02:29;;;;;;;3.02;2.60;;;;;;;15.16;100.00;97691.23;2180083;81;22115;-86
2022/09/17 13:05:33;;;;;;;3.05;2.80;;;;;;;14.98;100.00;97684.28;2179532;82;21511;-85
2022/09/17 13:08:34;;;;;;;2.60;2.50;;;;;;;14.98;100.00;97681.64;2179981;82;20971;-86
2022/09/17 13:11:34;;;;;;;3.92;3.10;;;;;;;15.07;100.00;97677.61;2179341;82;20980;-90
2022/09/17 13:14:35;;;;;;;2.92;2.65;;;;;;;15.18;100.00;97678.64;2179778;81;21853;-87
2022/09/17 13:17:36;;;;;;;8.48;4.28;;;;;;;15.29;100.00;97668.56;2179766;82;20963;-88
2022/09/17 13:20:37;;;;;;;4.00;3.65;;;;;;;15.59;100.00;97662.25;2180104;82;20916;-85
2022/09/17 13:23:37;;;;;;;3.05;2.85;;;;;;;15.71;100.00;97655.61;2181937;82;20959;-87
2022/09/17 13:26:38;;;;;;;2.33;2.22;;;;;;;15.85;100.00;97658.24;2181522;82;20975;-86
2022/09/17 13:29:39;;;;;;;4.45;3.30;;;;;;;15.83;100.00;97659.01;2180692;82;21054;-86
2022/09/17 13:32:40;;;;;;;3.70;3.27;;;;;;;15.94;100.00;97663.41;2181405;82;20928;-89
2022/09/17 13:35:41;;;;;;;3.00;2.72;;;;;;;16.05;100.00;97667.02;2180456;82;21498;-89
2022/09/17 13:38:41;;;;;;;3.37;3.17;;;;;;;16.17;100.00;97662.44;2179818;82;21504;-89
2022/09/17 13:41:42;;;;;;;5.62;3.25;;;;;;;16.13;100.00;97658.17;2181441;82;20968;-93
2022/09/17 13:44:43;;;;;;;3.42;3.20;;;;;;;16.11;100.00;97648.91;2182282;82;21098;-87
2022/09/17 13:47:44;;;;;;;5.17;3.90;;;;;;;16.21;100.00;97655.66;2180567;82;20976;-90
2022/09/17 13:50:45;;;;;;;7.20;4.62;;;;;;;16.27;100.00;97649.91;2180608;82;20976;-85
2022/09/17 13:53:46;;;;;;;5.95;3.50;;;;;;;16.25;100.00;97646.72;2161219;82;20941;-86
2022/09/17 13:56:49;;;;;;;3.47;3.17;;;;;;;16.26;100.00;97644.35;2161821;82;20995;-85
2022/09/17 13:59:50;;;;;;;5.37;4.80;;;;;;;16.34;100.00;97646.06;2182141;81;21014;-85
2022/09/17 14:02:51;;;;;;;4.35;3.87;;;;;;;16.44;100.00;97645.41;2181284;81;20944;-85
2022/09/17 14:05:51;;;;;;;3.58;3.00;;;;;;;16.53;100.00;97648.44;2180568;81;20995;-87